sensor_id;sensor_type;location;lat;lon;timestamp;P1;durP1;ratioP1;P2;durP2;ratioP2
12222;SDS011;6174;49.058;8.524;2022-12-29T05:02:37;2.63;;;1.10;;
12222;SDS011;6174;49.058;8.524;2022-12-29T05:05:04;1.47;;;1.03;;
12222;SDS011;6174;49.058;8.524;2022-12-29T05:07:31;1.80;;;1.40;;
12222;SDS011;6174;49.058;8.524;2022-12-29T05:09:59;2.13;;;1.60;;
12222;SDS011;6174;49.058;8.524;2022-12-29T05:12:29;2.03;;;1.30;;
12222;SDS011;6174;49.058;8.524;2022-12-29T05:17:24;1.97;;;1.43;;
12222;SDS011;6174;49.058;8.524;2022-12-29T05:19:52;2.37;;;1.60;;
12222;SDS011;6174;49.058;8.524;2022-12-29T05:22:18;2.40;;;1.27;;
12222;SDS011;6174;49.058;8.524;2022-12-29T05:24:45;3.53;;;1.50;;
12222;SDS011;6174;49.058;8.524;2022-12-29T05:27:12;1.70;;;1.60;;
12222;SDS011;6174;49.058;8.524;2022-12-29T05:29:39;2.33;;;1.40;;
12222;SDS011;6174;49.058;8.524;2022-12-29T05:32:06;3.63;;;1.43;;
12222;SDS011;6174;49.058;8.524;2022-12-29T05:34:32;1.53;;;1.43;;
12222;SDS011;6174;49.058;8.524;2022-12-29T05:37:00;3.13;;;1.70;;
12222;SDS011;6174;49.058;8.524;2022-12-29T05:39:28;2.10;;;1.77;;
12222;SDS011;6174;49.058;8.524;2022-12-29T05:41:55;1.73;;;1.63;;
12222;SDS011;6174;49.058;8.524;2022-12-29T05:44:21;1.50;;;1.37;;
12222;SDS011;6174;49.058;8.524;2022-12-29T05:46:48;1.70;;;1.60;;
12222;SDS011;6174;49.058;8.524;2022-12-29T05:49:15;1.50;;;1.40;;
12222;SDS011;6174;49.058;8.524;2022-12-29T05:51:42;2.33;;;1.63;;
12222;SDS011;6174;49.058;8.524;2022-12-29T05:54:10;2.00;;;1.60;;
12222;SDS011;6174;49.058;8.524;2022-12-29T05:56:37;1.67;;;1.53;;
12222;SDS011;6174;49.058;8.524;2022-12-29T05:59:04;1.97;;;1.40;;
12222;SDS011;6174;49.058;8.524;2022-12-29T06:01:30;2.20;;;1.40;;
12222;SDS011;6174;49.058;8.524;2022-12-29T06:03:59;3.07;;;1.60;;
12222;SDS011;6174;49.058;8.524;2022-12-29T06:06:26;1.37;;;1.30;;
12222;SDS011;6174;49.058;8.524;2022-12-29T06:08:52;2.27;;;1.47;;
12222;SDS011;6174;49.058;8.524;2022-12-29T06:11:20;1.77;;;1.30;;
12222;SDS011;6174;49.058;8.524;2022-12-29T06:13:47;1.77;;;1.50;;
12222;SDS011;6174;49.058;8.524;2022-12-29T06:16:14;1.50;;;1.40;;
12222;SDS011;6174;49.058;8.524;2022-12-29T06:18:41;2.67;;;1.60;;
12222;SDS011;6174;49.058;8.524;2022-12-29T06:21:07;1.83;;;1.60;;
12222;SDS011;6174;49.058;8.524;2022-12-29T06:23:34;1.43;;;1.33;;
12222;SDS011;6174;49.058;8.524;2022-12-29T06:26:01;1.80;;;1.30;;
12222;SDS011;6174;49.058;8.524;2022-12-29T06:28:29;1.63;;;1.53;;
12222;SDS011;6174;49.058;8.524;2022-12-29T06:30:55;1.40;;;1.20;;
12222;SDS011;6174;49.058;8.524;2022-12-29T06:33:22;1.33;;;1.23;;
12222;SDS011;6174;49.058;8.524;2022-12-29T06:35:49;1.50;;;1.30;;
12222;SDS011;6174;49.058;8.524;2022-12-29T06:38:16;1.50;;;1.40;;
12222;SDS011;6174;49.058;8.524;2022-12-29T06:40:43;2.13;;;1.40;;
12222;SDS011;6174;49.058;8.524;2022-12-29T06:43:10;2.03;;;1.50;;
12222;SDS011;6174;49.058;8.524;2022-12-29T06:45:38;2.87;;;1.43;;
12222;SDS011;6174;49.058;8.524;2022-12-29T06:48:06;1.80;;;1.30;;
12222;SDS011;6174;49.058;8.524;2022-12-29T06:50:33;1.80;;;1.67;;
12222;SDS011;6174;49.058;8.524;2022-12-29T06:53:00;2.60;;;1.40;;
12222;SDS011;6174;49.058;8.524;2022-12-29T06:55:26;2.00;;;1.30;;
12222;SDS011;6174;49.058;8.524;2022-12-29T06:57:54;2.43;;;1.20;;
12222;SDS011;6174;49.058;8.524;2022-12-29T07:00:21;1.60;;;1.50;;
12222;SDS011;6174;49.058;8.524;2022-12-29T07:02:49;2.03;;;1.70;;
12222;SDS011;6174;49.058;8.524;2022-12-29T07:05:16;2.17;;;1.70;;
12222;SDS011;6174;49.058;8.524;2022-12-29T07:07:43;1.60;;;1.50;;
12222;SDS011;6174;49.058;8.524;2022-12-29T07:10:09;3.10;;;1.70;;
12222;SDS011;6174;49.058;8.524;2022-12-29T07:12:36;1.47;;;1.33;;
12222;SDS011;6174;49.058;8.524;2022-12-29T07:15:03;1.20;;;1.13;;
12222;SDS011;6174;49.058;8.524;2022-12-29T07:17:30;1.83;;;1.67;;
12222;SDS011;6174;49.058;8.524;2022-12-29T07:19:58;3.23;;;1.43;;
12222;SDS011;6174;49.058;8.524;2022-12-29T07:22:25;2.23;;;1.53;;
12222;SDS011;6174;49.058;8.524;2022-12-29T07:24:52;1.80;;;1.37;;
12222;SDS011;6174;49.058;8.524;2022-12-29T07:27:18;1.30;;;1.20;;
12222;SDS011;6174;49.058;8.524;2022-12-29T07:29:45;1.80;;;1.70;;
12222;SDS011;6174;49.058;8.524;2022-12-29T07:32:12;1.70;;;1.50;;
12222;SDS011;6174;49.058;8.524;2022-12-29T07:34:38;2.10;;;1.70;;
12222;SDS011;6174;49.058;8.524;2022-12-29T07:37:07;2.53;;;1.60;;
12222;SDS011;6174;49.058;8.524;2022-12-29T07:39:33;1.80;;;1.70;;
12222;SDS011;6174;49.058;8.524;2022-12-29T07:42:00;2.43;;;1.97;;
12222;SDS011;6174;49.058;8.524;2022-12-29T07:44:27;2.47;;;1.80;;
12222;SDS011;6174;49.058;8.524;2022-12-29T07:46:53;2.37;;;1.47;;
12222;SDS011;6174;49.058;8.524;2022-12-29T07:49:20;1.90;;;1.70;;
12222;SDS011;6174;49.058;8.524;2022-12-29T07:51:47;1.70;;;1.60;;
12222;SDS011;6174;49.058;8.524;2022-12-29T07:54:15;1.77;;;1.60;;
12222;SDS011;6174;49.058;8.524;2022-12-29T07:56:43;4.57;;;1.63;;
12222;SDS011;6174;49.058;8.524;2022-12-29T07:59:10;1.87;;;1.70;;
12222;SDS011;6174;49.058;8.524;2022-12-29T08:01:37;1.50;;;1.40;;
12222;SDS011;6174;49.058;8.524;2022-12-29T08:04:04;1.90;;;1.53;;
12222;SDS011;6174;49.058;8.524;2022-12-29T08:06:31;2.27;;;1.87;;
12222;SDS011;6174;49.058;8.524;2022-12-29T08:08:57;3.27;;;1.67;;
12222;SDS011;6174;49.058;8.524;2022-12-29T08:11:27;2.60;;;1.63;;
12222;SDS011;6174;49.058;8.524;2022-12-29T08:13:53;1.97;;;1.80;;
12222;SDS011;6174;49.058;8.524;2022-12-29T08:16:20;4.30;;;1.93;;
12222;SDS011;6174;49.058;8.524;2022-12-29T08:18:47;1.93;;;1.40;;
12222;SDS011;6174;49.058;8.524;2022-12-29T08:21:14;4.20;;;1.70;;
12222;SDS011;6174;49.058;8.524;2022-12-29T08:23:40;1.80;;;1.63;;
12222;SDS011;6174;49.058;8.524;2022-12-29T08:26:07;2.60;;;2.30;;
12222;SDS011;6174;49.058;8.524;2022-12-29T08:28:35;2.23;;;1.50;;
12222;SDS011;6174;49.058;8.524;2022-12-29T08:31:02;1.83;;;1.70;;
12222;SDS011;6174;49.058;8.524;2022-12-29T08:33:29;2.17;;;1.50;;
12222;SDS011;6174;49.058;8.524;2022-12-29T08:35:58;1.63;;;1.53;;
12222;SDS011;6174;49.058;8.524;2022-12-29T08:38:26;1.70;;;1.60;;
12222;SDS011;6174;49.058;8.524;2022-12-29T08:40:53;2.03;;;1.50;;
12222;SDS011;6174;49.058;8.524;2022-12-29T08:43:20;3.60;;;1.70;;
12222;SDS011;6174;49.058;8.524;2022-12-29T08:45:48;2.60;;;1.83;;
12222;SDS011;6174;49.058;8.524;2022-12-29T08:48:15;2.30;;;2.10;;
12222;SDS011;6174;49.058;8.524;2022-12-29T08:50:44;4.20;;;2.10;;
12222;SDS011;6174;49.058;8.524;2022-12-29T08:53:12;2.10;;;1.90;;
12222;SDS011;6174;49.058;8.524;2022-12-29T08:55:39;2.73;;;2.20;;
12222;SDS011;6174;49.058;8.524;2022-12-29T08:58:05;2.80;;;1.70;;
12222;SDS011;6174;49.058;8.524;2022-12-29T09:00:32;2.03;;;1.80;;
12222;SDS011;6174;49.058;8.524;2022-12-29T09:03:00;1.83;;;1.57;;
12222;SDS011;6174;49.058;8.524;2022-12-29T09:05:27;3.80;;;1.40;;
12222;SDS011;6174;49.058;8.524;2022-12-29T09:07:54;2.60;;;2.00;;
12222;SDS011;6174;49.058;8.524;2022-12-29T09:10:21;2.07;;;1.43;;
12222;SDS011;6174;49.058;8.524;2022-12-29T09:12:48;3.57;;;1.80;;
12222;SDS011;6174;49.058;8.524;2022-12-29T09:15:15;2.37;;;1.60;;
12222;SDS011;6174;49.058;8.524;2022-12-29T09:17:42;1.50;;;1.40;;
12222;SDS011;6174;49.058;8.524;2022-12-29T09:20:11;2.37;;;1.53;;
12222;SDS011;6174;49.058;8.524;2022-12-29T09:22:38;1.90;;;1.50;;
12222;SDS011;6174;49.058;8.524;2022-12-29T09:25:05;3.00;;;1.73;;
12222;SDS011;6174;49.058;8.524;2022-12-29T09:27:34;2.00;;;1.50;;
12222;SDS011;6174;49.058;8.524;2022-12-29T09:30:01;1.60;;;1.50;;
12222;SDS011;6174;49.058;8.524;2022-12-29T09:32:28;2.87;;;1.70;;
12222;SDS011;6174;49.058;8.524;2022-12-29T09:34:54;2.07;;;1.60;;
12222;SDS011;6174;49.058;8.524;2022-12-29T09:37:22;4.93;;;1.20;;
12222;SDS011;6174;49.058;8.524;2022-12-29T09:39:49;3.50;;;1.70;;
12222;SDS011;6174;49.058;8.524;2022-12-29T09:42:18;1.70;;;1.50;;
12222;SDS011;6174;49.058;8.524;2022-12-29T09:44:51;1.73;;;1.50;;
12222;SDS011;6174;49.058;8.524;2022-12-29T09:47:25;1.90;;;1.67;;
12222;SDS011;6174;49.058;8.524;2022-12-29T09:49:54;1.67;;;1.40;;
12222;SDS011;6174;49.058;8.524;2022-12-29T09:52:26;1.40;;;1.30;;
12222;SDS011;6174;49.058;8.524;2022-12-29T09:54:58;2.07;;;1.60;;
12222;SDS011;6174;49.058;8.524;2022-12-29T09:57:29;1.70;;;1.47;;
12222;SDS011;6174;49.058;8.524;2022-12-29T10:00:03;2.27;;;1.50;;
12222;SDS011;6174;49.058;8.524;2022-12-29T10:02:37;1.87;;;1.50;;
12222;SDS011;6174;49.058;8.524;2022-12-29T10:05:12;2.53;;;1.77;;
12222;SDS011;6174;49.058;8.524;2022-12-29T10:07:57;1.80;;;1.70;;
12222;SDS011;6174;49.058;8.524;2022-12-29T10:10:35;2.87;;;1.90;;
12222;SDS011;6174;49.058;8.524;2022-12-29T10:13:08;1.60;;;1.40;;
12222;SDS011;6174;49.058;8.524;2022-12-29T10:15:48;3.03;;;1.60;;
12222;SDS011;6174;49.058;8.524;2022-12-29T10:18:29;1.63;;;1.53;;
12222;SDS011;6174;49.058;8.524;2022-12-29T10:21:06;2.33;;;2.00;;
12222;SDS011;6174;49.058;8.524;2022-12-29T10:23:42;1.87;;;1.60;;
12222;SDS011;6174;49.058;8.524;2022-12-29T10:26:12;2.03;;;1.63;;
12222;SDS011;6174;49.058;8.524;2022-12-29T10:28:42;3.37;;;1.50;;
12222;SDS011;6174;49.058;8.524;2022-12-29T10:31:13;2.87;;;1.87;;
12222;SDS011;6174;49.058;8.524;2022-12-29T10:33:46;2.03;;;1.60;;
12222;SDS011;6174;49.058;8.524;2022-12-29T10:36:18;2.47;;;1.77;;
12222;SDS011;6174;49.058;8.524;2022-12-29T10:38:59;2.37;;;1.70;;
12222;SDS011;6174;49.058;8.524;2022-12-29T10:41:34;3.93;;;2.27;;
12222;SDS011;6174;49.058;8.524;2022-12-29T10:44:07;2.43;;;1.90;;
12222;SDS011;6174;49.058;8.524;2022-12-29T10:46:37;2.17;;;1.80;;
12222;SDS011;6174;49.058;8.524;2022-12-29T10:49:04;2.57;;;2.10;;
12222;SDS011;6174;49.058;8.524;2022-12-29T10:51:33;3.23;;;2.00;;
12222;SDS011;6174;49.058;8.524;2022-12-29T10:54:05;1.90;;;1.70;;
12222;SDS011;6174;49.058;8.524;2022-12-29T10:56:40;2.30;;;2.07;;
12222;SDS011;6174;49.058;8.524;2022-12-29T10:59:11;2.00;;;1.57;;
12222;SDS011;6174;49.058;8.524;2022-12-29T11:01:43;3.60;;;1.70;;
12222;SDS011;6174;49.058;8.524;2022-12-29T11:04:25;2.70;;;2.10;;
12222;SDS011;6174;49.058;8.524;2022-12-29T11:06:57;2.27;;;1.80;;
12222;SDS011;6174;49.058;8.524;2022-12-29T11:09:27;2.13;;;1.80;;
12222;SDS011;6174;49.058;8.524;2022-12-29T11:11:55;2.70;;;1.80;;
12222;SDS011;6174;49.058;8.524;2022-12-29T11:14:26;2.73;;;1.80;;
12222;SDS011;6174;49.058;8.524;2022-12-29T11:16:57;2.33;;;1.90;;
12222;SDS011;6174;49.058;8.524;2022-12-29T11:19:26;2.90;;;2.00;;
12222;SDS011;6174;49.058;8.524;2022-12-29T11:21:56;2.13;;;1.93;;
12222;SDS011;6174;49.058;8.524;2022-12-29T11:24:49;3.23;;;2.90;;
12222;SDS011;6174;49.058;8.524;2022-12-29T11:30:29;1.70;;;1.60;;
12222;SDS011;6174;49.058;8.524;2022-12-29T11:32:57;1.90;;;1.60;;
12222;SDS011;6174;49.058;8.524;2022-12-29T11:35:34;1.67;;;1.43;;
12222;SDS011;6174;49.058;8.524;2022-12-29T11:38:22;2.37;;;1.70;;
12222;SDS011;6174;49.058;8.524;2022-12-29T11:40:56;2.10;;;1.87;;
12222;SDS011;6174;49.058;8.524;2022-12-29T11:43:32;2.37;;;1.90;;
12222;SDS011;6174;49.058;8.524;2022-12-29T11:46:20;1.50;;;1.40;;
12222;SDS011;6174;49.058;8.524;2022-12-29T11:49:41;1.87;;;1.60;;
12222;SDS011;6174;49.058;8.524;2022-12-29T11:52:23;3.37;;;2.00;;
12222;SDS011;6174;49.058;8.524;2022-12-29T11:54:57;2.63;;;1.50;;
12222;SDS011;6174;49.058;8.524;2022-12-29T11:57:26;2.10;;;1.50;;
12222;SDS011;6174;49.058;8.524;2022-12-29T11:59:54;2.03;;;1.60;;
12222;SDS011;6174;49.058;8.524;2022-12-29T12:02:50;1.97;;;1.60;;
12222;SDS011;6174;49.058;8.524;2022-12-29T12:05:24;1.90;;;1.17;;
12222;SDS011;6174;49.058;8.524;2022-12-29T12:08:02;1.87;;;1.77;;
12222;SDS011;6174;49.058;8.524;2022-12-29T12:10:36;1.70;;;1.40;;
12222;SDS011;6174;49.058;8.524;2022-12-29T12:13:14;2.53;;;1.80;;
12222;SDS011;6174;49.058;8.524;2022-12-29T12:15:50;1.50;;;1.10;;
12222;SDS011;6174;49.058;8.524;2022-12-29T12:18:23;2.63;;;1.40;;
12222;SDS011;6174;49.058;8.524;2022-12-29T12:21:13;1.57;;;1.27;;
12222;SDS011;6174;49.058;8.524;2022-12-29T12:24:10;1.40;;;1.30;;
12222;SDS011;6174;49.058;8.524;2022-12-29T12:27:02;1.10;;;1.00;;
12222;SDS011;6174;49.058;8.524;2022-12-29T12:29:50;1.20;;;1.10;;
12222;SDS011;6174;49.058;8.524;2022-12-29T12:32:24;1.17;;;1.07;;
12222;SDS011;6174;49.058;8.524;2022-12-29T12:35:10;0.80;;;0.80;;
12222;SDS011;6174;49.058;8.524;2022-12-29T12:37:45;1.30;;;0.90;;
12222;SDS011;6174;49.058;8.524;2022-12-29T12:40:29;1.63;;;1.00;;
12222;SDS011;6174;49.058;8.524;2022-12-29T12:43:17;2.30;;;1.00;;
12222;SDS011;6174;49.058;8.524;2022-12-29T12:46:00;1.57;;;0.90;;
12222;SDS011;6174;49.058;8.524;2022-12-29T12:48:48;2.30;;;1.90;;
12222;SDS011;6174;49.058;8.524;2022-12-29T12:51:38;1.67;;;1.57;;
12222;SDS011;6174;49.058;8.524;2022-12-29T12:54:16;1.60;;;1.50;;
12222;SDS011;6174;49.058;8.524;2022-12-29T12:56:58;1.87;;;1.23;;
12222;SDS011;6174;49.058;8.524;2022-12-29T12:59:36;1.40;;;1.30;;
12222;SDS011;6174;49.058;8.524;2022-12-29T13:02:18;2.00;;;1.10;;
12222;SDS011;6174;49.058;8.524;2022-12-29T13:05:04;1.30;;;1.20;;
12222;SDS011;6174;49.058;8.524;2022-12-29T13:07:47;1.30;;;1.07;;
12222;SDS011;6174;49.058;8.524;2022-12-29T13:10:30;1.20;;;1.10;;
12222;SDS011;6174;49.058;8.524;2022-12-29T13:13:12;1.33;;;1.27;;
12222;SDS011;6174;49.058;8.524;2022-12-29T13:15:50;1.40;;;1.30;;
12222;SDS011;6174;49.058;8.524;2022-12-29T13:18:26;1.27;;;1.10;;
12222;SDS011;6174;49.058;8.524;2022-12-29T13:20:59;1.30;;;1.20;;
12222;SDS011;6174;49.058;8.524;2022-12-29T13:23:34;1.90;;;1.23;;
12222;SDS011;6174;49.058;8.524;2022-12-29T13:26:06;1.30;;;1.20;;
12222;SDS011;6174;49.058;8.524;2022-12-29T13:28:44;1.47;;;1.07;;
12222;SDS011;6174;49.058;8.524;2022-12-29T13:31:18;1.50;;;1.40;;
12222;SDS011;6174;49.058;8.524;2022-12-29T13:33:57;1.40;;;1.30;;
12222;SDS011;6174;49.058;8.524;2022-12-29T13:36:33;2.63;;;1.80;;
12222;SDS011;6174;49.058;8.524;2022-12-29T13:39:09;1.20;;;1.20;;
12222;SDS011;6174;49.058;8.524;2022-12-29T13:41:45;1.07;;;0.97;;
12222;SDS011;6174;49.058;8.524;2022-12-29T13:44:17;1.27;;;1.13;;
12222;SDS011;6174;49.058;8.524;2022-12-29T13:46:47;1.50;;;1.20;;
12222;SDS011;6174;49.058;8.524;2022-12-29T13:49:18;2.40;;;1.20;;
12222;SDS011;6174;49.058;8.524;2022-12-29T13:51:47;1.27;;;1.17;;
12222;SDS011;6174;49.058;8.524;2022-12-29T13:54:18;1.67;;;1.10;;
12222;SDS011;6174;49.058;8.524;2022-12-29T13:56:56;1.70;;;1.40;;
12222;SDS011;6174;49.058;8.524;2022-12-29T13:59:36;1.80;;;1.60;;
12222;SDS011;6174;49.058;8.524;2022-12-29T14:02:11;1.20;;;1.10;;
12222;SDS011;6174;49.058;8.524;2022-12-29T14:04:56;1.73;;;0.80;;
12222;SDS011;6174;49.058;8.524;2022-12-29T14:07:25;1.17;;;0.60;;
12222;SDS011;6174;49.058;8.524;2022-12-29T14:09:53;1.10;;;0.70;;
12222;SDS011;6174;49.058;8.524;2022-12-29T14:12:32;1.40;;;0.80;;
12222;SDS011;6174;49.058;8.524;2022-12-29T14:15:05;1.53;;;1.13;;
12222;SDS011;6174;49.058;8.524;2022-12-29T14:17:41;1.10;;;1.00;;
12222;SDS011;6174;49.058;8.524;2022-12-29T14:20:17;0.93;;;0.90;;
12222;SDS011;6174;49.058;8.524;2022-12-29T14:22:57;1.97;;;1.20;;
12222;SDS011;6174;49.058;8.524;2022-12-29T14:28:25;2.13;;;1.50;;
12222;SDS011;6174;49.058;8.524;2022-12-29T14:30:54;1.30;;;1.20;;
12222;SDS011;6174;49.058;8.524;2022-12-29T14:33:22;1.20;;;1.13;;
12222;SDS011;6174;49.058;8.524;2022-12-29T14:35:56;2.30;;;1.70;;
12222;SDS011;6174;49.058;8.524;2022-12-29T14:38:32;1.07;;;0.90;;
12222;SDS011;6174;49.058;8.524;2022-12-29T14:43:57;1.47;;;1.33;;
12222;SDS011;6174;49.058;8.524;2022-12-29T14:46:42;2.40;;;0.90;;
12222;SDS011;6174;49.058;8.524;2022-12-29T14:49:18;2.50;;;1.37;;
12222;SDS011;6174;49.058;8.524;2022-12-29T15:00:44;1.33;;;1.10;;
12222;SDS011;6174;49.058;8.524;2022-12-29T15:03:17;3.30;;;1.10;;
12222;SDS011;6174;49.058;8.524;2022-12-29T15:06:23;1.43;;;1.13;;
12222;SDS011;6174;49.058;8.524;2022-12-29T15:08:54;1.63;;;1.10;;
12222;SDS011;6174;49.058;8.524;2022-12-29T15:11:29;1.80;;;0.77;;
12222;SDS011;6174;49.058;8.524;2022-12-29T15:16:55;3.97;;;1.93;;
12222;SDS011;6174;49.058;8.524;2022-12-29T15:19:22;3.70;;;1.90;;
12222;SDS011;6174;49.058;8.524;2022-12-29T15:21:49;4.83;;;3.50;;
12222;SDS011;6174;49.058;8.524;2022-12-29T15:24:18;2.63;;;1.73;;
12222;SDS011;6174;49.058;8.524;2022-12-29T15:26:45;3.13;;;2.67;;
12222;SDS011;6174;49.058;8.524;2022-12-29T15:29:36;4.20;;;3.43;;
12222;SDS011;6174;49.058;8.524;2022-12-29T15:32:15;4.20;;;3.33;;
12222;SDS011;6174;49.058;8.524;2022-12-29T15:34:45;3.23;;;2.47;;
12222;SDS011;6174;49.058;8.524;2022-12-29T15:37:16;4.37;;;2.47;;
12222;SDS011;6174;49.058;8.524;2022-12-29T15:39:45;7.27;;;3.40;;
12222;SDS011;6174;49.058;8.524;2022-12-29T15:42:19;3.50;;;2.93;;
12222;SDS011;6174;49.058;8.524;2022-12-29T15:45:00;3.30;;;3.00;;
12222;SDS011;6174;49.058;8.524;2022-12-29T15:47:30;4.30;;;2.70;;
12222;SDS011;6174;49.058;8.524;2022-12-29T15:49:59;6.47;;;4.03;;
12222;SDS011;6174;49.058;8.524;2022-12-29T15:52:30;4.80;;;3.60;;
12222;SDS011;6174;49.058;8.524;2022-12-29T15:54:58;3.80;;;3.27;;
12222;SDS011;6174;49.058;8.524;2022-12-29T15:57:26;3.60;;;2.63;;
12222;SDS011;6174;49.058;8.524;2022-12-29T15:59:57;3.23;;;2.60;;
12222;SDS011;6174;49.058;8.524;2022-12-29T16:02:26;2.20;;;2.00;;
12222;SDS011;6174;49.058;8.524;2022-12-29T16:04:53;2.67;;;1.87;;
12222;SDS011;6174;49.058;8.524;2022-12-29T16:07:24;3.23;;;2.50;;
12222;SDS011;6174;49.058;8.524;2022-12-29T16:09:54;3.67;;;2.27;;
12222;SDS011;6174;49.058;8.524;2022-12-29T16:12:22;3.30;;;2.80;;
12222;SDS011;6174;49.058;8.524;2022-12-29T16:14:51;3.47;;;2.47;;
12222;SDS011;6174;49.058;8.524;2022-12-29T16:17:21;3.30;;;2.93;;
12222;SDS011;6174;49.058;8.524;2022-12-29T16:19:53;3.30;;;3.00;;
12222;SDS011;6174;49.058;8.524;2022-12-29T16:22:25;3.17;;;2.60;;
12222;SDS011;6174;49.058;8.524;2022-12-29T16:24:55;4.83;;;2.83;;
12222;SDS011;6174;49.058;8.524;2022-12-29T16:27:25;2.20;;;1.80;;
12222;SDS011;6174;49.058;8.524;2022-12-29T16:29:57;2.93;;;1.90;;
12222;SDS011;6174;49.058;8.524;2022-12-29T16:32:24;2.70;;;1.90;;
12222;SDS011;6174;49.058;8.524;2022-12-29T16:35:02;3.77;;;1.90;;
12222;SDS011;6174;49.058;8.524;2022-12-29T16:37:37;2.10;;;1.90;;
12222;SDS011;6174;49.058;8.524;2022-12-29T16:42:54;2.07;;;1.87;;
12222;SDS011;6174;49.058;8.524;2022-12-29T16:48:33;2.43;;;1.87;;
12222;SDS011;6174;49.058;8.524;2022-12-29T16:51:03;1.97;;;1.77;;
12222;SDS011;6174;49.058;8.524;2022-12-29T16:53:32;2.70;;;1.83;;
12222;SDS011;6174;49.058;8.524;2022-12-29T16:56:03;3.40;;;2.40;;
12222;SDS011;6174;49.058;8.524;2022-12-29T16:58:33;3.27;;;2.10;;
12222;SDS011;6174;49.058;8.524;2022-12-29T17:01:02;2.77;;;2.17;;
12222;SDS011;6174;49.058;8.524;2022-12-29T17:03:32;2.60;;;2.40;;
12222;SDS011;6174;49.058;8.524;2022-12-29T17:06:04;3.87;;;2.80;;
12222;SDS011;6174;49.058;8.524;2022-12-29T17:08:38;4.03;;;3.00;;
12222;SDS011;6174;49.058;8.524;2022-12-29T17:11:08;3.07;;;2.60;;
12222;SDS011;6174;49.058;8.524;2022-12-29T17:14:03;2.37;;;2.03;;
12222;SDS011;6174;49.058;8.524;2022-12-29T17:16:30;2.50;;;2.23;;
12222;SDS011;6174;49.058;8.524;2022-12-29T17:18:57;3.03;;;2.17;;
12222;SDS011;6174;49.058;8.524;2022-12-29T17:21:25;2.60;;;2.40;;
12222;SDS011;6174;49.058;8.524;2022-12-29T17:23:52;3.77;;;2.67;;
12222;SDS011;6174;49.058;8.524;2022-12-29T17:26:19;4.53;;;3.60;;
12222;SDS011;6174;49.058;8.524;2022-12-29T17:28:46;3.93;;;3.10;;
12222;SDS011;6174;49.058;8.524;2022-12-29T17:31:13;4.20;;;3.00;;
12222;SDS011;6174;49.058;8.524;2022-12-29T17:33:40;2.93;;;2.33;;
12222;SDS011;6174;49.058;8.524;2022-12-29T17:36:07;2.27;;;1.90;;
12222;SDS011;6174;49.058;8.524;2022-12-29T17:38:37;2.63;;;2.00;;
12222;SDS011;6174;49.058;8.524;2022-12-29T17:41:05;2.00;;;1.80;;
12222;SDS011;6174;49.058;8.524;2022-12-29T17:43:39;2.57;;;2.03;;
12222;SDS011;6174;49.058;8.524;2022-12-29T17:46:06;3.73;;;2.73;;
12222;SDS011;6174;49.058;8.524;2022-12-29T17:48:33;7.23;;;2.87;;
12222;SDS011;6174;49.058;8.524;2022-12-29T17:51:00;3.77;;;2.10;;
12222;SDS011;6174;49.058;8.524;2022-12-29T17:53:28;2.57;;;2.10;;
12222;SDS011;6174;49.058;8.524;2022-12-29T17:55:56;2.60;;;2.40;;
12222;SDS011;6174;49.058;8.524;2022-12-29T17:58:24;4.10;;;2.30;;
12222;SDS011;6174;49.058;8.524;2022-12-29T18:00:52;3.30;;;2.20;;
12222;SDS011;6174;49.058;8.524;2022-12-29T18:03:21;2.53;;;2.30;;
12222;SDS011;6174;49.058;8.524;2022-12-29T18:05:51;4.43;;;2.50;;
12222;SDS011;6174;49.058;8.524;2022-12-29T18:08:17;3.63;;;2.30;;
12222;SDS011;6174;49.058;8.524;2022-12-29T18:10:44;3.93;;;2.73;;
12222;SDS011;6174;49.058;8.524;2022-12-29T18:13:20;4.03;;;2.60;;
12222;SDS011;6174;49.058;8.524;2022-12-29T18:15:49;4.83;;;3.13;;
12222;SDS011;6174;49.058;8.524;2022-12-29T18:18:17;3.23;;;2.80;;
12222;SDS011;6174;49.058;8.524;2022-12-29T18:20:45;3.33;;;2.10;;
12222;SDS011;6174;49.058;8.524;2022-12-29T18:23:14;4.73;;;2.27;;
12222;SDS011;6174;49.058;8.524;2022-12-29T18:25:45;3.67;;;2.27;;
12222;SDS011;6174;49.058;8.524;2022-12-29T18:28:16;3.27;;;2.80;;
12222;SDS011;6174;49.058;8.524;2022-12-29T18:30:43;3.80;;;2.80;;
12222;SDS011;6174;49.058;8.524;2022-12-29T18:33:12;6.30;;;2.67;;
12222;SDS011;6174;49.058;8.524;2022-12-29T18:35:41;4.50;;;2.50;;
12222;SDS011;6174;49.058;8.524;2022-12-29T18:38:11;6.87;;;3.70;;
12222;SDS011;6174;49.058;8.524;2022-12-29T18:40:38;4.70;;;3.97;;
12222;SDS011;6174;49.058;8.524;2022-12-29T18:43:05;4.40;;;3.30;;
12222;SDS011;6174;49.058;8.524;2022-12-29T18:45:33;3.37;;;2.80;;
12222;SDS011;6174;49.058;8.524;2022-12-29T18:48:00;7.67;;;5.60;;
12222;SDS011;6174;49.058;8.524;2022-12-29T18:50:27;8.03;;;3.30;;
12222;SDS011;6174;49.058;8.524;2022-12-29T18:52:54;8.90;;;7.47;;
12222;SDS011;6174;49.058;8.524;2022-12-29T18:55:21;5.30;;;4.80;;
12222;SDS011;6174;49.058;8.524;2022-12-29T18:57:49;5.37;;;3.30;;
12222;SDS011;6174;49.058;8.524;2022-12-29T19:00:17;4.90;;;2.40;;
12222;SDS011;6174;49.058;8.524;2022-12-29T19:02:47;4.30;;;2.57;;
12222;SDS011;6174;49.058;8.524;2022-12-29T19:05:18;5.07;;;3.83;;
12222;SDS011;6174;49.058;8.524;2022-12-29T19:07:47;5.27;;;3.17;;
12222;SDS011;6174;49.058;8.524;2022-12-29T19:10:14;7.93;;;4.80;;
12222;SDS011;6174;49.058;8.524;2022-12-29T19:12:41;6.17;;;3.47;;
12222;SDS011;6174;49.058;8.524;2022-12-29T19:15:12;5.53;;;3.43;;
12222;SDS011;6174;49.058;8.524;2022-12-29T19:17:44;6.00;;;4.30;;
12222;SDS011;6174;49.058;8.524;2022-12-29T19:20:19;6.17;;;3.63;;
12222;SDS011;6174;49.058;8.524;2022-12-29T19:22:51;6.73;;;3.33;;
12222;SDS011;6174;49.058;8.524;2022-12-29T19:25:18;6.57;;;3.70;;
12222;SDS011;6174;49.058;8.524;2022-12-29T19:27:45;5.30;;;3.30;;
12222;SDS011;6174;49.058;8.524;2022-12-29T19:30:12;3.53;;;2.37;;
12222;SDS011;6174;49.058;8.524;2022-12-29T19:32:39;4.67;;;3.37;;
12222;SDS011;6174;49.058;8.524;2022-12-29T19:35:08;5.93;;;3.60;;
12222;SDS011;6174;49.058;8.524;2022-12-29T19:37:36;3.93;;;3.00;;
12222;SDS011;6174;49.058;8.524;2022-12-29T19:40:05;4.70;;;3.33;;
12222;SDS011;6174;49.058;8.524;2022-12-29T19:42:32;3.20;;;2.53;;
12222;SDS011;6174;49.058;8.524;2022-12-29T19:44:59;5.83;;;2.20;;
12222;SDS011;6174;49.058;8.524;2022-12-29T19:47:27;5.27;;;2.80;;
12222;SDS011;6174;49.058;8.524;2022-12-29T19:49:55;4.77;;;2.90;;
12222;SDS011;6174;49.058;8.524;2022-12-29T19:52:23;3.40;;;1.80;;
12222;SDS011;6174;49.058;8.524;2022-12-29T19:54:50;4.20;;;1.80;;
12222;SDS011;6174;49.058;8.524;2022-12-29T19:57:17;4.07;;;2.13;;
12222;SDS011;6174;49.058;8.524;2022-12-29T19:59:44;2.73;;;2.10;;
12222;SDS011;6174;49.058;8.524;2022-12-29T20:02:12;4.30;;;2.77;;
12222;SDS011;6174;49.058;8.524;2022-12-29T20:04:43;3.97;;;2.67;;
12222;SDS011;6174;49.058;8.524;2022-12-29T20:07:10;4.57;;;2.80;;
12222;SDS011;6174;49.058;8.524;2022-12-29T20:09:38;2.97;;;2.53;;
12222;SDS011;6174;49.058;8.524;2022-12-29T20:12:05;4.03;;;2.60;;
12222;SDS011;6174;49.058;8.524;2022-12-29T20:14:32;2.53;;;1.77;;
12222;SDS011;6174;49.058;8.524;2022-12-29T20:16:59;2.77;;;1.83;;
12222;SDS011;6174;49.058;8.524;2022-12-29T20:19:26;4.10;;;2.27;;
12222;SDS011;6174;49.058;8.524;2022-12-29T20:21:54;4.37;;;2.83;;
12222;SDS011;6174;49.058;8.524;2022-12-29T20:24:21;4.77;;;2.07;;
12222;SDS011;6174;49.058;8.524;2022-12-29T20:26:49;3.17;;;2.00;;
12222;SDS011;6174;49.058;8.524;2022-12-29T20:29:17;3.80;;;2.07;;
12222;SDS011;6174;49.058;8.524;2022-12-29T20:31:43;2.77;;;1.87;;
12222;SDS011;6174;49.058;8.524;2022-12-29T20:34:11;3.47;;;1.10;;
12222;SDS011;6174;49.058;8.524;2022-12-29T20:36:38;2.30;;;1.30;;
12222;SDS011;6174;49.058;8.524;2022-12-29T20:39:08;3.57;;;1.93;;
12222;SDS011;6174;49.058;8.524;2022-12-29T20:41:39;3.40;;;2.10;;
12222;SDS011;6174;49.058;8.524;2022-12-29T20:44:08;4.43;;;3.57;;
12222;SDS011;6174;49.058;8.524;2022-12-29T20:46:35;22.97;;;19.10;;
12222;SDS011;6174;49.058;8.524;2022-12-29T20:49:02;17.83;;;14.50;;
12222;SDS011;6174;49.058;8.524;2022-12-29T20:51:30;5.37;;;3.00;;
12222;SDS011;6174;49.058;8.524;2022-12-29T20:53:57;5.87;;;3.63;;